Time;durP1;ratioP1;P1;durP2;ratioP2;P2;SDS_P1;SDS_P2;PMS_P1;PMS_P2;Temp;Humidity;BMP_temperature;BMP_pressure;BME280_temperature;BME280_humidity;BME280_pressure;Samples;Min_cycle;Max_cycle;Signal;HPM_P1;HPM_P2
2021/09/06 00:04:10;;;;;;;4.63;3.33;;;;;;;;;;10370010;28;20542;-83
2021/09/06 00:09:10;;;;;;;8.48;3.35;;;;;;;;;;10377852;28;20034;-83
2021/09/06 00:14:11;;;;;;;13.25;3.70;;;;;;;;;;10402798;28;20037;-82
2021/09/06 00:19:11;;;;;;;4.57;3.08;;;;;;;;;;10383594;28;20034;-83
2021/09/06 00:24:12;;;;;;;12.67;3.40;;;;;;;;;;10372979;28;20041;-83
2021/09/06 00:29:12;;;;;;;8.97;3.20;;;;;;;;;;10360911;28;20065;-83
2021/09/06 00:34:12;;;;;;;8.00;3.33;;;;;;;;;;10343409;28;20082;-83
2021/09/06 00:39:13;;;;;;;16.73;3.60;;;;;;;;;;10336549;28;20467;-82
2021/09/06 00:44:13;;;;;;;8.03;3.10;;;;;;;;;;10335575;28;20513;-83
2021/09/06 00:49:19;;;;;;;6.20;3.20;;;;;;;;;;10363472;28;20355;-83
2021/09/06 00:54:19;;;;;;;7.93;3.58;;;;;;;;;;10346184;28;20038;-83
2021/09/06 00:59:19;;;;;;;5.80;2.90;;;;;;;;;;10347612;28;20026;-83
2021/09/06 01:04:20;;;;;;;3.67;3.10;;;;;;;;;;10346779;28;20033;-83
2021/09/06 01:09:20;;;;;;;9.43;3.30;;;;;;;;;;10335795;28;20828;-84
2021/09/06 01:14:21;;;;;;;7.80;3.60;;;;;;;;;;10341161;28;20034;-83
2021/09/06 01:19:21;;;;;;;4.50;3.10;;;;;;;;;;10348022;28;20025;-83
2021/09/06 01:24:21;;;;;;;6.97;3.40;;;;;;;;;;10356039;28;20455;-83
2021/09/06 01:29:22;;;;;;;5.55;2.90;;;;;;;;;;10351696;28;20351;-83
2021/09/06 01:34:22;;;;;;;2.63;2.43;;;;;;;;;;10349360;28;20038;-84
2021/09/06 01:39:23;;;;;;;6.72;2.95;;;;;;;;;;10373497;28;20112;-83
2021/09/06 01:44:23;;;;;;;3.93;3.27;;;;;;;;;;10341371;28;20038;-84
2021/09/06 01:49:23;;;;;;;14.00;3.07;;;;;;;;;;10335556;28;20449;-84
2021/09/06 01:54:24;;;;;;;9.83;2.90;;;;;;;;;;10357071;28;20061;-85
2021/09/06 01:59:24;;;;;;;9.07;2.78;;;;;;;;;;10338001;28;20836;-84
2021/09/06 02:04:25;;;;;;;2.87;2.47;;;;;;;;;;10351914;28;20026;-84
2021/09/06 02:09:25;;;;;;;3.45;2.88;;;;;;;;;;10371567;28;20065;-85
2021/09/06 02:14:25;;;;;;;7.90;2.97;;;;;;;;;;10358063;28;20103;-85
2021/09/06 02:19:26;;;;;;;4.93;2.87;;;;;;;;;;10345582;28;20021;-85
2021/09/06 02:24:28;;;;;;;6.50;2.83;;;;;;;;;;10370493;28;20096;-85
2021/09/06 02:29:28;;;;;;;5.13;2.60;;;;;;;;;;10340809;28;20124;-84
2021/09/06 02:34:29;;;;;;;11.27;3.20;;;;;;;;;;10342079;28;20113;-84
2021/09/06 02:39:29;;;;;;;3.33;2.63;;;;;;;;;;10363337;28;20803;-84
2021/09/06 02:44:30;;;;;;;5.23;2.80;;;;;;;;;;10341169;28;20551;-85
2021/09/06 02:49:31;;;;;;;6.85;2.53;;;;;;;;;;10348616;28;20495;-85
2021/09/06 02:54:31;;;;;;;4.73;2.60;;;;;;;;;;10353877;28;20045;-83
2021/09/06 02:59:31;;;;;;;4.67;2.63;;;;;;;;;;10339940;28;20500;-82
2021/09/06 03:04:32;;;;;;;5.27;2.47;;;;;;;;;;10341249;28;20523;-83
2021/09/06 03:09:32;;;;;;;5.10;2.57;;;;;;;;;;10348192;28;20037;-83
2021/09/06 03:14:33;;;;;;;5.17;2.80;;;;;;;;;;10338953;28;20384;-82
2021/09/06 03:19:33;;;;;;;3.30;2.25;;;;;;;;;;10362859;28;20117;-84
2021/09/06 03:24:34;;;;;;;3.73;2.20;;;;;;;;;;10369951;28;20544;-84
2021/09/06 03:29:34;;;;;;;2.67;2.25;;;;;;;;;;10360246;28;20030;-84
2021/09/06 03:34:35;;;;;;;4.57;2.38;;;;;;;;;;10349377;28;20035;-84
2021/09/06 03:39:35;;;;;;;2.40;2.20;;;;;;;;;;10350074;28;20030;-83
2021/09/06 03:44:35;;;;;;;5.17;2.60;;;;;;;;;;10367786;28;20052;-84
2021/09/06 03:49:36;;;;;;;3.17;2.17;;;;;;;;;;10338702;28;20486;-85
2021/09/06 03:54:36;;;;;;;7.17;3.03;;;;;;;;;;10338605;28;20026;-85
2021/09/06 03:59:37;;;;;;;3.00;2.23;;;;;;;;;;10346990;28;20033;-84
2021/09/06 04:04:37;;;;;;;2.73;2.47;;;;;;;;;;10340930;28;20030;-86
2021/09/06 04:09:37;;;;;;;3.15;2.17;;;;;;;;;;10380354;28;20037;-85
2021/09/06 04:14:38;;;;;;;4.10;2.55;;;;;;;;;;10369894;28;20120;-84
2021/09/06 04:19:38;;;;;;;3.53;2.50;;;;;;;;;;10341433;28;20029;-85
2021/09/06 04:24:39;;;;;;;5.20;2.23;;;;;;;;;;10333505;28;20031;-84
2021/09/06 04:29:39;;;;;;;3.23;2.57;;;;;;;;;;10343154;28;20464;-84
2021/09/06 04:34:40;;;;;;;4.07;2.50;;;;;;;;;;10370833;28;20523;-84
2021/09/06 04:39:40;;;;;;;8.17;2.53;;;;;;;;;;10350544;28;20472;-83
2021/09/06 04:44:41;;;;;;;2.97;2.40;;;;;;;;;;10347593;28;20496;-83
2021/09/06 04:49:41;;;;;;;5.47;2.63;;;;;;;;;;10336663;28;20026;-84
2021/09/06 04:54:41;;;;;;;2.40;2.20;;;;;;;;;;10348755;28;20059;-84
2021/09/06 04:59:42;;;;;;;4.60;2.47;;;;;;;;;;10363497;28;20518;-84
2021/09/06 05:04:43;;;;;;;4.27;2.97;;;;;;;;;;10343473;28;20061;-83
2021/09/06 05:09:43;;;;;;;4.75;2.58;;;;;;;;;;10375019;28;20062;-85
2021/09/06 05:14:44;;;;;;;3.03;2.70;;;;;;;;;;10374859;28;20422;-85
2021/09/06 05:19:44;;;;;;;3.35;2.47;;;;;;;;;;10376150;28;20467;-86
2021/09/06 05:24:45;;;;;;;2.73;2.37;;;;;;;;;;10371360;28;20093;-84
2021/09/06 05:29:45;;;;;;;6.13;2.33;;;;;;;;;;10339359;28;20472;-85
2021/09/06 05:34:45;;;;;;;2.67;2.30;;;;;;;;;;10348603;28;20030;-85
2021/09/06 05:39:46;;;;;;;5.40;2.50;;;;;;;;;;10334333;28;20073;-85
2021/09/06 05:44:49;;;;;;;3.70;2.73;;;;;;;;;;10361872;28;20474;-83
2021/09/06 05:49:50;;;;;;;6.18;2.40;;;;;;;;;;10372236;28;20409;-83
2021/09/06 05:54:50;;;;;;;6.27;2.40;;;;;;;;;;10373466;28;20030;-82
2021/09/06 05:59:51;;;;;;;4.30;2.40;;;;;;;;;;10371178;28;20488;-85
2021/09/06 06:04:51;;;;;;;4.50;2.35;;;;;;;;;;10354436;28;20470;-87
2021/09/06 06:09:52;;;;;;;2.77;2.43;;;;;;;;;;10373797;28;20052;-81
2021/09/06 06:14:53;;;;;;;4.13;2.50;;;;;;;;;;10370052;28;20038;-84
2021/09/06 06:19:54;;;;;;;6.22;2.45;;;;;;;;;;10374117;28;20040;-84
2021/09/06 06:24:54;;;;;;;6.83;2.83;;;;;;;;;;10371772;28;20379;-88
2021/09/06 06:29:54;;;;;;;2.53;2.00;;;;;;;;;;10332528;28;20452;-87
2021/09/06 06:34:55;;;;;;;4.63;2.50;;;;;;;;;;10351421;28;20027;-88
2021/09/06 06:39:55;;;;;;;5.23;2.13;;;;;;;;;;10328352;28;20077;-88
2021/09/06 06:44:56;;;;;;;2.43;2.10;;;;;;;;;;10334464;28;20047;-86
2021/09/06 06:49:56;;;;;;;5.70;2.60;;;;;;;;;;10332354;28;20123;-89
2021/09/06 06:54:56;;;;;;;3.53;2.47;;;;;;;;;;10327932;28;20035;-88
2021/09/06 06:59:57;;;;;;;3.57;2.37;;;;;;;;;;10332432;28;20489;-90
2021/09/06 07:04:57;;;;;;;3.40;2.30;;;;;;;;;;10350770;28;20124;-91
2021/09/06 07:09:58;;;;;;;4.00;2.67;;;;;;;;;;10341153;28;20069;-92
2021/09/06 07:14:58;;;;;;;4.95;2.30;;;;;;;;;;10349810;28;20096;-95
2021/09/06 07:19:59;;;;;;;7.13;2.60;;;;;;;;;;10364218;28;20033;-92
2021/09/06 07:24:59;;;;;;;3.35;2.05;;;;;;;;;;10346023;28;20393;-94
2021/09/06 07:30:00;;;;;;;11.97;2.67;;;;;;;;;;10340069;28;20045;-96
2021/09/06 07:35:00;;;;;;;3.27;2.10;;;;;;;;;;10350163;28;20543;-96
2021/09/06 07:40:00;;;;;;;2.87;2.03;;;;;;;;;;10340771;28;20366;-95
2021/09/06 07:45:01;;;;;;;3.47;2.37;;;;;;;;;;10556338;23;20643;-93
2021/09/06 07:50:06;;;;;;;3.53;2.33;;;;;;;;;;10395953;28;20041;-94
2021/09/06 07:55:08;;;;;;;3.03;2.42;;;;;;;;;;10406517;28;20426;-95
2021/09/06 08:00:09;;;;;;;4.93;2.20;;;;;;;;;;10420049;28;20108;-91
2021/09/06 08:05:09;;;;;;;5.40;2.00;;;;;;;;;;10419997;28;20025;-92
2021/09/06 08:10:10;;;;;;;2.38;2.00;;;;;;;;;;10388815;28;20123;-94
2021/09/06 08:15:11;;;;;;;2.58;2.00;;;;;;;;;;10407845;28;20030;-96
2021/09/06 08:20:14;;;;;;;7.47;2.55;;;;;;;;;;10406576;28;20026;-96
2021/09/06 08:25:15;;;;;;;5.22;2.30;;;;;;;;;;10389489;28;20030;-92
2021/09/06 08:30:18;;;;;;;40.17;4.20;;;;;;;;;;10418883;28;20045;-89
2021/09/06 08:35:18;;;;;;;8.93;3.28;;;;;;;;;;10402464;28;20115;-90
2021/09/06 08:40:19;;;;;;;13.07;3.47;;;;;;;;;;10414680;28;20126;-89
2021/09/06 08:45:20;;;;;;;11.55;3.20;;;;;;;;;;10416379;28;20494;-88
2021/09/06 08:50:20;;;;;;;8.85;3.30;;;;;;;;;;10403325;28;20029;-88
2021/09/06 08:55:21;;;;;;;7.73;3.60;;;;;;;;;;10416297;28;20087;-89
2021/09/06 09:00:29;;;;;;;15.93;3.75;;;;;;;;;;10416362;28;20469;-87
2021/09/06 09:05:30;;;;;;;10.43;3.85;;;;;;;;;;10416714;28;20036;-87
2021/09/06 09:10:32;;;;;;;11.70;3.50;;;;;;;;;;10405820;28;20424;-85
2021/09/06 09:15:36;;;;;;;7.18;2.92;;;;;;;;;;10402262;28;20435;-88
2021/09/06 09:20:40;;;;;;;6.03;3.08;;;;;;;;;;10398851;28;20036;-88
2021/09/06 09:25:40;;;;;;;9.32;3.80;;;;;;;;;;10416503;28;20120;-88
2021/09/06 09:30:41;;;;;;;8.57;2.95;;;;;;;;;;10415109;28;20116;-87
2021/09/06 09:35:41;;;;;;;4.85;3.38;;;;;;;;;;10401847;28;20026;-84
2021/09/06 09:40:47;;;;;;;7.47;3.38;;;;;;;;;;10398583;28;20033;-88
2021/09/06 09:45:47;;;;;;;15.68;4.30;;;;;;;;;;10398943;28;20045;-86
2021/09/06 09:50:48;;;;;;;6.77;3.33;;;;;;;;;;10390934;28;20114;-88
2021/09/06 09:55:48;;;;;;;5.10;3.15;;;;;;;;;;10414572;28;20449;-89
2021/09/06 10:00:49;;;;;;;7.70;3.73;;;;;;;;;;10415944;28;20028;-88
2021/09/06 10:05:51;;;;;;;8.48;3.30;;;;;;;;;;10415125;28;20570;-88
2021/09/06 10:10:51;;;;;;;8.30;3.20;;;;;;;;;;10390269;28;20124;-88
2021/09/06 10:16:03;;;;;;;4.97;3.53;;;;;;;;;;10375509;28;20061;-90
2021/09/06 10:21:11;;;;;;;6.03;3.38;;;;;;;;;;10405320;28;20601;-92
2021/09/06 10:26:13;;;;;;;5.38;3.00;;;;;;;;;;10383937;28;20041;-88
2021/09/06 10:31:20;;;;;;;3.85;3.22;;;;;;;;;;10414442;28;20473;-89
2021/09/06 10:36:21;;;;;;;8.10;3.60;;;;;;;;;;10413842;28;20470;-89
2021/09/06 10:41:23;;;;;;;10.53;3.57;;;;;;;;;;10414747;28;20064;-93
2021/09/06 10:46:28;;;;;;;5.43;3.40;;;;;;;;;;10390597;28;20439;-93
2021/09/06 10:51:34;;;;;;;6.78;3.15;;;;;;;;;;10390155;28;20030;-96
2021/09/06 10:56:35;;;;;;;5.18;3.38;;;;;;;;;;10397155;28;20021;-94
2021/09/06 11:01:37;;;;;;;4.05;3.30;;;;;;;;;;10405426;28;20133;-90
2021/09/06 11:06:37;;;;;;;8.93;3.63;;;;;;;;;;10394940;28;20026;-88
2021/09/06 11:11:38;;;;;;;7.20;3.57;;;;;;;;;;10421920;28;20444;-88
2021/09/06 11:16:41;;;;;;;4.53;3.07;;;;;;;;;;10395470;28;20109;-88
2021/09/06 11:21:43;;;;;;;7.47;3.85;;;;;;;;;;10420156;28;20087;-90
2021/09/06 11:26:43;;;;;;;5.07;3.33;;;;;;;;;;10408844;28;20032;-83
2021/09/06 11:31:48;;;;;;;5.20;3.67;;;;;;;;;;10408599;28;20373;-84
2021/09/06 11:36:49;;;;;;;3.90;3.42;;;;;;;;;;10406832;28;20833;-86
2021/09/06 11:41:49;;;;;;;5.28;3.30;;;;;;;;;;10417747;28;20095;-84
2021/09/06 11:46:50;;;;;;;6.88;2.83;;;;;;;;;;10383627;28;20466;-85
2021/09/06 11:51:50;;;;;;;5.73;2.83;;;;;;;;;;10410672;28;20049;-86
2021/09/06 11:56:58;;;;;;;5.97;3.10;;;;;;;;;;10400908;28;20061;-86
2021/09/06 12:01:58;;;;;;;6.20;3.13;;;;;;;;;;10412649;28;20100;-86
2021/09/06 12:07:15;;;;;;;4.63;3.23;;;;;;;;;;10417277;28;20029;-86
2021/09/06 12:12:25;;;;;;;7.82;3.53;;;;;;;;;;10393270;28;20037;-86
2021/09/06 12:17:33;;;;;;;4.38;2.97;;;;;;;;;;10399501;28;20536;-86
2021/09/06 12:22:34;;;;;;;4.28;3.22;;;;;;;;;;10391478;28;20033;-86
2021/09/06 12:27:35;;;;;;;8.77;3.65;;;;;;;;;;10417017;28;20029;-86
2021/09/06 12:32:36;;;;;;;6.18;3.22;;;;;;;;;;10411433;28;20076;-86
2021/09/06 12:37:36;;;;;;;3.90;2.93;;;;;;;;;;10413699;28;20068;-87
2021/09/06 12:42:37;;;;;;;5.68;3.30;;;;;;;;;;10416384;28;20099;-86
2021/09/06 12:47:37;;;;;;;8.50;3.43;;;;;;;;;;10416832;28;20034;-87
2021/09/06 12:52:38;;;;;;;18.40;3.63;;;;;;;;;;10411067;28;20450;-85
2021/09/06 12:57:38;;;;;;;11.00;3.65;;;;;;;;;;10404653;28;20029;-91
2021/09/06 13:02:38;;;;;;;5.33;3.10;;;;;;;;;;10415099;28;20116;-90
2021/09/06 13:07:39;;;;;;;4.53;3.17;;;;;;;;;;10415121;28;20589;-91
2021/09/06 13:12:39;;;;;;;6.93;3.00;;;;;;;;;;10398985;28;20451;-85
2021/09/06 13:17:40;;;;;;;5.03;3.15;;;;;;;;;;10402041;28;20026;-95
2021/09/06 13:22:42;;;;;;;7.83;3.17;;;;;;;;;;10413040;28;20033;-88
2021/09/06 13:27:42;;;;;;;7.72;3.17;;;;;;;;;;10397566;28;20535;-93
2021/09/06 13:32:43;;;;;;;5.43;3.13;;;;;;;;;;10361431;28;20097;-92
2021/09/06 13:37:43;;;;;;;3.95;3.03;;;;;;;;;;10395834;28;20021;-93
2021/09/06 13:42:44;;;;;;;4.70;3.10;;;;;;;;;;10383627;28;20060;-96
2021/09/06 13:47:44;;;;;;;7.33;3.27;;;;;;;;;;10386391;28;20455;-89
2021/09/06 13:52:45;;;;;;;8.93;3.40;;;;;;;;;;10404920;28;20026;-93
2021/09/06 13:57:46;;;;;;;4.82;3.20;;;;;;;;;;10379694;28;20374;-89
2021/09/06 14:02:47;;;;;;;10.27;3.00;;;;;;;;;;10375301;28;20472;-91
2021/09/06 14:07:47;;;;;;;3.67;2.80;;;;;;;;;;10411469;28;20065;-96
2021/09/06 14:12:48;;;;;;;5.75;2.83;;;;;;;;;;10373414;28;20033;-95
2021/09/06 14:17:48;;;;;;;4.70;2.97;;;;;;;;;;10368340;28;20385;-94
2021/09/06 14:22:49;;;;;;;4.35;3.08;;;;;;;;;;10376354;28;20025;-93
2021/09/06 14:27:49;;;;;;;5.63;2.93;;;;;;;;;;10393286;28;20041;-92
2021/09/06 14:32:49;;;;;;;4.43;2.80;;;;;;;;;;10393587;28;20554;-93
2021/09/06 14:37:50;;;;;;;6.57;3.10;;;;;;;;;;10415594;28;20471;-93
2021/09/06 14:42:50;;;;;;;7.35;2.92;;;;;;;;;;10372062;28;20491;-92
2021/09/06 14:47:51;;;;;;;2.40;2.17;;;;;;;;;;10361690;28;20128;-91
2021/09/06 14:52:52;;;;;;;4.07;2.45;;;;;;;;;;10385425;28;20531;-87
2021/09/06 14:57:52;;;;;;;4.30;3.00;;;;;;;;;;10379383;28;20121;-88
2021/09/06 15:02:53;;;;;;;3.53;3.13;;;;;;;;;;10414903;28;20112;-88
2021/09/06 15:07:53;;;;;;;5.83;2.80;;;;;;;;;;10381554;28;20466;-88
2021/09/06 15:12:54;;;;;;;3.10;2.80;;;;;;;;;;10372409;28;20456;-90
2021/09/06 15:17:54;;;;;;;6.93;2.95;;;;;;;;;;10375836;28;20056;-90
2021/09/06 15:22:54;;;;;;;4.50;2.93;;;;;;;;;;10371130;28;20107;-85
2021/09/06 15:27:55;;;;;;;3.80;2.77;;;;;;;;;;10420651;28;20104;-86
2021/09/06 15:32:55;;;;;;;3.55;2.67;;;;;;;;;;10386682;28;20502;-85
2021/09/06 15:37:57;;;;;;;5.33;2.57;;;;;;;;;;10411713;28;20030;-88
2021/09/06 15:42:58;;;;;;;4.75;2.53;;;;;;;;;;10394102;28;20041;-87
2021/09/06 15:47:59;;;;;;;8.85;3.53;;;;;;;;;;10403580;28;20405;-86
2021/09/06 15:52:59;;;;;;;8.63;3.27;;;;;;;;;;10409226;28;20409;-87
2021/09/06 15:57:59;;;;;;;3.87;3.07;;;;;;;;;;10414676;28;20037;-87
2021/09/06 16:03:00;;;;;;;4.60;3.23;;;;;;;;;;10403378;28;20037;-88
2021/09/06 16:08:00;;;;;;;3.07;2.73;;;;;;;;;;10416894;28;20531;-91
2021/09/06 16:13:01;;;;;;;4.85;2.95;;;;;;;;;;10394384;28;20521;-87
2021/09/06 16:18:01;;;;;;;6.32;2.90;;;;;;;;;;10367654;28;20042;-87
2021/09/06 16:23:02;;;;;;;6.20;3.10;;;;;;;;;;10387288;28;20112;-89
2021/09/06 16:28:02;;;;;;;4.28;2.85;;;;;;;;;;10371057;28;20029;-91
2021/09/06 16:33:04;;;;;;;4.53;3.03;;;;;;;;;;10402969;28;20021;-92
2021/09/06 16:38:04;;;;;;;4.90;3.08;;;;;;;;;;10407158;28;20026;-92
2021/09/06 16:43:05;;;;;;;6.65;2.78;;;;;;;;;;10402597;28;20057;-94
2021/09/06 16:48:05;;;;;;;8.00;3.63;;;;;;;;;;10389935;28;20037;-91
2021/09/06 16:53:06;;;;;;;6.15;3.08;;;;;;;;;;10388589;28;20029;-94
2021/09/06 16:58:06;;;;;;;3.53;2.70;;;;;;;;;;10419888;28;20492;-90
2021/09/06 17:03:07;;;;;;;4.53;2.80;;;;;;;;;;10406519;28;20079;-91
2021/09/06 17:08:07;;;;;;;8.93;3.23;;;;;;;;;;10404282;28;20481;-89
2021/09/06 17:13:07;;;;;;;4.70;2.97;;;;;;;;;;10417430;28;20030;-88
2021/09/06 17:18:08;;;;;;;5.18;3.00;;;;;;;;;;10402711;28;20025;-92
2021/09/06 17:23:08;;;;;;;3.37;2.70;;;;;;;;;;10380024;28;20040;-89
2021/09/06 17:28:09;;;;;;;3.17;2.67;;;;;;;;;;10417465;28;20111;-92
2021/09/06 17:33:09;;;;;;;6.00;3.20;;;;;;;;;;10399093;28;20017;-95
2021/09/06 17:38:10;;;;;;;7.55;3.40;;;;;;;;;;10407917;28;20472;-92
2021/09/06 17:43:10;;;;;;;5.17;2.90;;;;;;;;;;10414917;28;20091;-92
2021/09/06 17:48:11;;;;;;;5.38;3.72;;;;;;;;;;10398519;28;20053;-91
2021/09/06 17:53:11;;;;;;;4.83;3.50;;;;;;;;;;10414802;28;20393;-91
2021/09/06 17:58:11;;;;;;;5.63;3.10;;;;;;;;;;10398780;28;20450;-91
2021/09/06 18:03:12;;;;;;;5.27;2.97;;;;;;;;;;10415299;28;20112;-92
2021/09/06 18:08:12;;;;;;;5.17;3.30;;;;;;;;;;10415421;28;20029;-91
2021/09/06 18:13:13;;;;;;;5.90;3.15;;;;;;;;;;10415318;28;20854;-92
2021/09/06 18:18:13;;;;;;;4.15;2.90;;;;;;;;;;10368774;28;20053;-91
2021/09/06 18:23:15;;;;;;;4.32;3.17;;;;;;;;;;10394387;28;20064;-91
2021/09/06 18:28:15;;;;;;;6.30;2.90;;;;;;;;;;10390274;28;20041;-91
2021/09/06 18:33:15;;;;;;;5.13;3.17;;;;;;;;;;10414939;28;20029;-91
2021/09/06 18:38:16;;;;;;;3.80;3.07;;;;;;;;;;10389666;28;20017;-81
2021/09/06 18:43:16;;;;;;;5.63;3.30;;;;;;;;;;10407800;28;20041;-81
2021/09/06 18:48:17;;;;;;;5.00;2.95;;;;;;;;;;10388697;28;20037;-81
2021/09/06 18:53:18;;;;;;;8.20;3.50;;;;;;;;;;10391949;28;20068;-81
2021/09/06 18:58:18;;;;;;;6.93;3.67;;;;;;;;;;10401416;28;20033;-81
2021/09/06 19:03:19;;;;;;;5.65;3.30;;;;;;;;;;10414684;28;20106;-81
2021/09/06 19:08:19;;;;;;;8.18;3.30;;;;;;;;;;10421444;28;20120;-82
2021/09/06 19:13:20;;;;;;;8.55;3.67;;;;;;;;;;10412781;28;20469;-81
2021/09/06 19:18:20;;;;;;;5.00;3.13;;;;;;;;;;10420294;28;20065;-81
2021/09/06 19:23:21;;;;;;;7.83;3.33;;;;;;;;;;10405732;28;20042;-81
2021/09/06 19:28:23;;;;;;;6.05;3.42;;;;;;;;;;10417814;28;20451;-81
2021/09/06 19:33:23;;;;;;;6.47;3.20;;;;;;;;;;10418245;28;20030;-82
2021/09/06 19:38:24;;;;;;;8.97;3.70;;;;;;;;;;10406222;28;20030;-81
2021/09/06 19:43:25;;;;;;;8.68;3.30;;;;;;;;;;10372600;23;20507;-82
2021/09/06 19:48:25;;;;;;;16.05;4.30;;;;;;;;;;10353569;28;20025;-82
2021/09/06 19:53:25;;;;;;;12.10;3.90;;;;;;;;;;10386459;28;20115;-82
2021/09/06 19:58:26;;;;;;;7.20;3.50;;;;;;;;;;10367130;28;21315;-81
2021/09/06 20:03:26;;;;;;;7.13;4.13;;;;;;;;;;10360294;28;20039;-82
2021/09/06 20:08:26;;;;;;;8.25;4.07;;;;;;;;;;10364059;28;20054;-83
2021/09/06 20:13:27;;;;;;;9.80;3.97;;;;;;;;;;10376509;28;20029;-82
2021/09/06 20:18:27;;;;;;;10.90;3.93;;;;;;;;;;10373925;28;20112;-82
2021/09/06 20:23:27;;;;;;;11.80;4.13;;;;;;;;;;10382744;28;20034;-80
2021/09/06 20:28:28;;;;;;;10.20;4.50;;;;;;;;;;10375355;28;20061;-82
2021/09/06 20:33:28;;;;;;;11.60;4.53;;;;;;;;;;10371052;28;20057;-82
2021/09/06 20:38:29;;;;;;;11.27;4.55;;;;;;;;;;10375715;28;20025;-81
2021/09/06 20:43:29;;;;;;;7.03;4.07;;;;;;;;;;10375207;28;20389;-81
2021/09/06 20:48:29;;;;;;;15.93;4.77;;;;;;;;;;10369208;28;20041;-81
2021/09/06 20:53:30;;;;;;;11.23;4.30;;;;;;;;;;10366673;28;20117;-81
2021/09/06 20:58:31;;;;;;;13.18;4.68;;;;;;;;;;10367926;28;20026;-82
2021/09/06 21:03:31;;;;;;;9.33;4.47;;;;;;;;;;10376420;28;20041;-81
2021/09/06 21:08:38;;;;;;;13.13;4.45;;;;;;;;;;10376677;28;20439;-82
2021/09/06 21:13:39;;;;;;;16.60;6.15;;;;;;;;;;10373704;28;20037;-83
2021/09/06 21:18:40;;;;;;;9.65;5.70;;;;;;;;;;10372510;28;20026;-82
2021/09/06 21:23:40;;;;;;;13.60;5.80;;;;;;;;;;10370266;28;20382;-81
2021/09/06 21:28:41;;;;;;;8.70;5.37;;;;;;;;;;10371239;28;20026;-82
2021/09/06 21:33:41;;;;;;;8.77;5.80;;;;;;;;;;10374572;28;20346;-82
2021/09/06 21:38:43;;;;;;;12.65;5.90;;;;;;;;;;10375375;28;20033;-81
2021/09/06 21:43:44;;;;;;;7.03;4.63;;;;;;;;;;10357318;28;20081;-87
2021/09/06 21:48:47;;;;;;;9.38;5.30;;;;;;;;;;10376935;28;20044;-93
2021/09/06 21:53:48;;;;;;;9.05;5.47;;;;;;;;;;10377335;28;20462;-91
2021/09/06 21:58:49;;;;;;;11.13;5.75;;;;;;;;;;10335607;28;20188;-96
2021/09/06 22:03:49;;;;;;;10.85;5.95;;;;;;;;;;10338426;28;20034;-91
2021/09/06 22:08:50;;;;;;;11.50;5.45;;;;;;;;;;10355776;28;20390;-93
2021/09/06 22:13:50;;;;;;;10.85;5.50;;;;;;;;;;10373588;28;20030;-96
2021/09/06 22:18:51;;;;;;;15.45;5.85;;;;;;;;;;10341710;28;20103;-93
2021/09/06 22:23:51;;;;;;;13.87;5.07;;;;;;;;;;10349759;28;20110;-92
2021/09/06 22:28:52;;;;;;;6.03;4.60;;;;;;;;;;10335811;28;20976;-91
2021/09/06 22:33:52;;;;;;;17.15;5.07;;;;;;;;;;10334186;28;20472;-86
2021/09/06 22:38:54;;;;;;;7.82;4.60;;;;;;;;;;10358605;28;20112;-90
2021/09/06 22:43:54;;;;;;;9.77;4.68;;;;;;;;;;10367220;28;20458;-90
2021/09/06 22:48:55;;;;;;;7.20;5.17;;;;;;;;;;10359887;28;20111;-87
2021/09/06 22:53:55;;;;;;;13.47;4.50;;;;;;;;;;10354710;28;20042;-89
2021/09/06 22:58:55;;;;;;;8.83;4.60;;;;;;;;;;10349947;28;20458;-91
2021/09/06 23:03:56;;;;;;;10.57;4.60;;;;;;;;;;10358133;28;20030;-88
2021/09/06 23:08:56;;;;;;;6.53;4.50;;;;;;;;;;10365004;28;20050;-89
2021/09/06 23:13:56;;;;;;;10.03;4.20;;;;;;;;;;10359703;28;20065;-89
2021/09/06 23:18:57;;;;;;;11.10;4.67;;;;;;;;;;10347438;28;20033;-89
2021/09/06 23:23:57;;;;;;;12.53;4.03;;;;;;;;;;10364473;28;20064;-89
2021/09/06 23:28:58;;;;;;;14.80;4.67;;;;;;;;;;10339745;28;20030;-89
2021/09/06 23:33:58;;;;;;;7.80;4.07;;;;;;;;;;10339666;28;20464;-88
2021/09/06 23:38:59;;;;;;;9.60;4.30;;;;;;;;;;10355550;28;20036;-89
2021/09/06 23:43:59;;;;;;;15.23;4.63;;;;;;;;;;10345514;28;20058;-88
2021/09/06 23:49:00;;;;;;;12.27;4.37;;;;;;;;;;10337877;28;20030;-88
2021/09/06 23:54:00;;;;;;;8.60;4.07;;;;;;;;;;10345016;28;20478;-87
2021/09/06 23:59:00;;;;;;;6.80;3.87;;;;;;;;;;10357390;28;20026;-88
